sensor_id;sensor_type;location;lat;lon;timestamp;P1;durP1;ratioP1;P2;durP2;ratioP2
13331;SDS011;6735;51.456;12.626;2023-01-19T00:01:06;22.83;;;15.30;;
13331;SDS011;6735;51.456;12.626;2023-01-19T00:03:33;21.90;;;14.67;;
13331;SDS011;6735;51.456;12.626;2023-01-19T00:06:03;25.57;;;15.97;;
13331;SDS011;6735;51.456;12.626;2023-01-19T00:08:29;21.23;;;15.47;;
13331;SDS011;6735;51.456;12.626;2023-01-19T00:10:55;21.20;;;15.00;;
13331;SDS011;6735;51.456;12.626;2023-01-19T00:13:20;21.53;;;14.30;;
13331;SDS011;6735;51.456;12.626;2023-01-19T00:15:45;20.40;;;14.60;;
13331;SDS011;6735;51.456;12.626;2023-01-19T00:18:11;20.77;;;14.60;;
13331;SDS011;6735;51.456;12.626;2023-01-19T00:20:37;20.97;;;14.70;;
13331;SDS011;6735;51.456;12.626;2023-01-19T00:23:03;20.47;;;14.17;;
13331;SDS011;6735;51.456;12.626;2023-01-19T00:25:31;22.30;;;13.37;;
13331;SDS011;6735;51.456;12.626;2023-01-19T00:27:56;18.40;;;13.57;;
13331;SDS011;6735;51.456;12.626;2023-01-19T00:30:22;16.73;;;13.07;;
13331;SDS011;6735;51.456;12.626;2023-01-19T00:32:47;19.07;;;13.13;;
13331;SDS011;6735;51.456;12.626;2023-01-19T00:35:13;20.37;;;13.67;;
13331;SDS011;6735;51.456;12.626;2023-01-19T00:37:39;17.47;;;12.83;;
13331;SDS011;6735;51.456;12.626;2023-01-19T00:40:05;20.00;;;13.17;;
13331;SDS011;6735;51.456;12.626;2023-01-19T00:42:31;17.40;;;13.10;;
13331;SDS011;6735;51.456;12.626;2023-01-19T00:45:12;19.47;;;13.10;;
13331;SDS011;6735;51.456;12.626;2023-01-19T00:47:39;18.23;;;13.77;;
13331;SDS011;6735;51.456;12.626;2023-01-19T00:50:05;18.03;;;13.17;;
13331;SDS011;6735;51.456;12.626;2023-01-19T00:52:31;18.47;;;12.57;;
13331;SDS011;6735;51.456;12.626;2023-01-19T00:54:57;17.97;;;13.37;;
13331;SDS011;6735;51.456;12.626;2023-01-19T00:57:22;16.47;;;12.73;;
13331;SDS011;6735;51.456;12.626;2023-01-19T00:59:48;18.30;;;12.37;;
13331;SDS011;6735;51.456;12.626;2023-01-19T01:02:13;17.37;;;12.80;;
13331;SDS011;6735;51.456;12.626;2023-01-19T01:04:39;18.70;;;12.80;;
13331;SDS011;6735;51.456;12.626;2023-01-19T01:07:04;18.47;;;12.53;;
13331;SDS011;6735;51.456;12.626;2023-01-19T01:09:30;17.63;;;12.43;;
13331;SDS011;6735;51.456;12.626;2023-01-19T01:11:56;16.57;;;12.90;;
13331;SDS011;6735;51.456;12.626;2023-01-19T01:14:21;21.30;;;12.10;;
13331;SDS011;6735;51.456;12.626;2023-01-19T01:16:48;15.37;;;11.93;;
13331;SDS011;6735;51.456;12.626;2023-01-19T01:19:13;16.37;;;12.07;;
13331;SDS011;6735;51.456;12.626;2023-01-19T01:21:39;17.43;;;11.90;;
13331;SDS011;6735;51.456;12.626;2023-01-19T01:24:05;16.20;;;11.87;;
13331;SDS011;6735;51.456;12.626;2023-01-19T01:26:31;17.87;;;12.07;;
13331;SDS011;6735;51.456;12.626;2023-01-19T01:28:56;17.50;;;12.03;;
13331;SDS011;6735;51.456;12.626;2023-01-19T01:31:22;14.00;;;11.27;;
13331;SDS011;6735;51.456;12.626;2023-01-19T01:33:47;19.43;;;12.40;;
13331;SDS011;6735;51.456;12.626;2023-01-19T01:36:12;18.10;;;12.10;;
13331;SDS011;6735;51.456;12.626;2023-01-19T01:38:38;17.60;;;11.23;;
13331;SDS011;6735;51.456;12.626;2023-01-19T01:41:04;16.73;;;11.40;;
13331;SDS011;6735;51.456;12.626;2023-01-19T01:43:40;17.33;;;11.40;;
13331;SDS011;6735;51.456;12.626;2023-01-19T01:46:07;16.60;;;10.77;;
13331;SDS011;6735;51.456;12.626;2023-01-19T01:48:33;16.43;;;11.00;;
13331;SDS011;6735;51.456;12.626;2023-01-19T01:51:01;18.23;;;11.33;;
13331;SDS011;6735;51.456;12.626;2023-01-19T01:53:46;15.43;;;11.17;;
13331;SDS011;6735;51.456;12.626;2023-01-19T01:56:18;18.60;;;11.40;;
13331;SDS011;6735;51.456;12.626;2023-01-19T01:58:48;16.87;;;11.47;;
13331;SDS011;6735;51.456;12.626;2023-01-19T02:01:14;16.53;;;10.83;;
13331;SDS011;6735;51.456;12.626;2023-01-19T02:03:57;14.73;;;10.90;;
13331;SDS011;6735;51.456;12.626;2023-01-19T02:06:23;17.27;;;11.47;;
13331;SDS011;6735;51.456;12.626;2023-01-19T02:08:54;19.10;;;11.33;;
13331;SDS011;6735;51.456;12.626;2023-01-19T02:11:44;16.93;;;11.27;;
13331;SDS011;6735;51.456;12.626;2023-01-19T02:14:29;14.80;;;10.47;;
13331;SDS011;6735;51.456;12.626;2023-01-19T02:16:54;17.83;;;11.77;;
13331;SDS011;6735;51.456;12.626;2023-01-19T02:19:21;21.50;;;12.23;;
13331;SDS011;6735;51.456;12.626;2023-01-19T02:24:33;15.67;;;10.93;;
13331;SDS011;6735;51.456;12.626;2023-01-19T02:26:59;14.83;;;11.77;;
13331;SDS011;6735;51.456;12.626;2023-01-19T02:29:25;14.53;;;11.37;;
13331;SDS011;6735;51.456;12.626;2023-01-19T02:31:52;18.23;;;11.23;;
13331;SDS011;6735;51.456;12.626;2023-01-19T02:34:20;14.17;;;10.73;;
13331;SDS011;6735;51.456;12.626;2023-01-19T02:39:26;18.83;;;10.80;;
13331;SDS011;6735;51.456;12.626;2023-01-19T02:42:01;17.63;;;10.70;;
13331;SDS011;6735;51.456;12.626;2023-01-19T02:44:30;15.83;;;11.10;;
13331;SDS011;6735;51.456;12.626;2023-01-19T02:46:57;14.20;;;10.67;;
13331;SDS011;6735;51.456;12.626;2023-01-19T02:49:26;16.57;;;11.03;;
13331;SDS011;6735;51.456;12.626;2023-01-19T02:51:52;15.43;;;11.13;;
13331;SDS011;6735;51.456;12.626;2023-01-19T02:59:46;15.07;;;10.47;;
13331;SDS011;6735;51.456;12.626;2023-01-19T03:02:25;13.87;;;10.13;;
13331;SDS011;6735;51.456;12.626;2023-01-19T03:04:58;12.07;;;9.67;;
13331;SDS011;6735;51.456;12.626;2023-01-19T03:07:48;15.27;;;10.20;;
13331;SDS011;6735;51.456;12.626;2023-01-19T03:10:19;13.20;;;9.70;;
13331;SDS011;6735;51.456;12.626;2023-01-19T03:12:53;18.00;;;10.30;;
13331;SDS011;6735;51.456;12.626;2023-01-19T03:15:29;13.23;;;9.70;;
13331;SDS011;6735;51.456;12.626;2023-01-19T03:18:07;11.83;;;9.70;;
13331;SDS011;6735;51.456;12.626;2023-01-19T03:20:35;13.93;;;9.50;;
13331;SDS011;6735;51.456;12.626;2023-01-19T03:23:03;14.27;;;9.67;;
13331;SDS011;6735;51.456;12.626;2023-01-19T03:25:32;13.07;;;8.20;;
13331;SDS011;6735;51.456;12.626;2023-01-19T03:28:00;12.63;;;9.37;;
13331;SDS011;6735;51.456;12.626;2023-01-19T03:30:30;13.80;;;9.83;;
13331;SDS011;6735;51.456;12.626;2023-01-19T03:32:59;11.77;;;9.13;;
13331;SDS011;6735;51.456;12.626;2023-01-19T03:35:29;12.47;;;8.90;;
13331;SDS011;6735;51.456;12.626;2023-01-19T03:37:57;12.53;;;8.77;;
13331;SDS011;6735;51.456;12.626;2023-01-19T03:40:26;11.40;;;8.27;;
13331;SDS011;6735;51.456;12.626;2023-01-19T03:42:55;15.60;;;8.97;;
13331;SDS011;6735;51.456;12.626;2023-01-19T03:45:20;14.83;;;8.30;;
13331;SDS011;6735;51.456;12.626;2023-01-19T03:47:47;10.67;;;7.90;;
13331;SDS011;6735;51.456;12.626;2023-01-19T03:50:13;14.73;;;8.73;;
13331;SDS011;6735;51.456;12.626;2023-01-19T03:52:58;11.70;;;8.43;;
13331;SDS011;6735;51.456;12.626;2023-01-19T03:55:27;11.43;;;9.07;;
13331;SDS011;6735;51.456;12.626;2023-01-19T03:57:53;13.40;;;7.80;;
13331;SDS011;6735;51.456;12.626;2023-01-19T04:00:18;12.83;;;8.40;;
13331;SDS011;6735;51.456;12.626;2023-01-19T04:02:44;12.93;;;8.43;;
13331;SDS011;6735;51.456;12.626;2023-01-19T04:05:09;11.10;;;7.90;;
13331;SDS011;6735;51.456;12.626;2023-01-19T04:07:35;10.33;;;7.80;;
13331;SDS011;6735;51.456;12.626;2023-01-19T04:10:00;10.97;;;7.90;;
13331;SDS011;6735;51.456;12.626;2023-01-19T04:12:26;10.73;;;8.00;;
13331;SDS011;6735;51.456;12.626;2023-01-19T04:14:51;11.97;;;9.00;;
13331;SDS011;6735;51.456;12.626;2023-01-19T04:17:16;12.77;;;8.00;;
13331;SDS011;6735;51.456;12.626;2023-01-19T04:19:42;13.30;;;8.00;;
13331;SDS011;6735;51.456;12.626;2023-01-19T04:22:08;12.17;;;7.60;;
13331;SDS011;6735;51.456;12.626;2023-01-19T04:24:34;9.03;;;7.50;;
13331;SDS011;6735;51.456;12.626;2023-01-19T04:26:59;11.23;;;7.63;;
13331;SDS011;6735;51.456;12.626;2023-01-19T04:29:25;11.83;;;10.47;;
13331;SDS011;6735;51.456;12.626;2023-01-19T04:31:50;12.63;;;8.17;;
13331;SDS011;6735;51.456;12.626;2023-01-19T04:34:16;11.10;;;7.50;;
13331;SDS011;6735;51.456;12.626;2023-01-19T04:36:41;11.27;;;8.10;;
13331;SDS011;6735;51.456;12.626;2023-01-19T04:39:09;11.13;;;8.17;;
13331;SDS011;6735;51.456;12.626;2023-01-19T04:41:35;12.20;;;7.27;;
13331;SDS011;6735;51.456;12.626;2023-01-19T04:44:01;11.00;;;6.70;;
13331;SDS011;6735;51.456;12.626;2023-01-19T04:46:26;9.87;;;7.60;;
13331;SDS011;6735;51.456;12.626;2023-01-19T04:48:52;8.93;;;7.03;;
13331;SDS011;6735;51.456;12.626;2023-01-19T04:51:17;9.60;;;6.67;;
13331;SDS011;6735;51.456;12.626;2023-01-19T04:53:43;10.57;;;7.20;;
13331;SDS011;6735;51.456;12.626;2023-01-19T04:56:08;9.80;;;7.43;;
13331;SDS011;6735;51.456;12.626;2023-01-19T04:58:33;8.53;;;7.10;;
13331;SDS011;6735;51.456;12.626;2023-01-19T05:00:59;10.80;;;7.73;;
13331;SDS011;6735;51.456;12.626;2023-01-19T05:03:24;9.43;;;7.60;;
13331;SDS011;6735;51.456;12.626;2023-01-19T05:05:50;9.50;;;7.50;;
13331;SDS011;6735;51.456;12.626;2023-01-19T05:08:16;9.27;;;7.80;;
13331;SDS011;6735;51.456;12.626;2023-01-19T05:10:41;9.90;;;7.63;;
13331;SDS011;6735;51.456;12.626;2023-01-19T05:13:07;10.60;;;8.17;;
13331;SDS011;6735;51.456;12.626;2023-01-19T05:15:32;10.13;;;8.60;;
13331;SDS011;6735;51.456;12.626;2023-01-19T05:17:58;13.80;;;8.67;;
13331;SDS011;6735;51.456;12.626;2023-01-19T05:20:23;10.60;;;8.23;;
13331;SDS011;6735;51.456;12.626;2023-01-19T05:22:49;12.20;;;9.10;;
13331;SDS011;6735;51.456;12.626;2023-01-19T05:25:16;13.77;;;8.80;;
13331;SDS011;6735;51.456;12.626;2023-01-19T05:27:41;11.03;;;9.33;;
13331;SDS011;6735;51.456;12.626;2023-01-19T05:30:07;11.67;;;9.20;;
13331;SDS011;6735;51.456;12.626;2023-01-19T05:32:33;10.83;;;8.83;;
13331;SDS011;6735;51.456;12.626;2023-01-19T05:34:59;11.97;;;9.37;;
13331;SDS011;6735;51.456;12.626;2023-01-19T05:37:24;14.17;;;9.63;;
13331;SDS011;6735;51.456;12.626;2023-01-19T05:39:50;12.83;;;9.33;;
13331;SDS011;6735;51.456;12.626;2023-01-19T05:42:15;15.83;;;10.37;;
13331;SDS011;6735;51.456;12.626;2023-01-19T05:44:41;12.13;;;9.87;;
13331;SDS011;6735;51.456;12.626;2023-01-19T05:47:06;15.07;;;10.37;;
13331;SDS011;6735;51.456;12.626;2023-01-19T05:49:32;15.07;;;11.13;;
13331;SDS011;6735;51.456;12.626;2023-01-19T05:51:57;13.80;;;10.27;;
13331;SDS011;6735;51.456;12.626;2023-01-19T05:54:23;13.80;;;9.77;;
13331;SDS011;6735;51.456;12.626;2023-01-19T05:56:48;14.33;;;10.53;;
13331;SDS011;6735;51.456;12.626;2023-01-19T05:59:14;14.50;;;11.43;;
13331;SDS011;6735;51.456;12.626;2023-01-19T06:01:41;15.93;;;11.90;;
13331;SDS011;6735;51.456;12.626;2023-01-19T06:04:07;14.07;;;10.70;;
13331;SDS011;6735;51.456;12.626;2023-01-19T06:06:32;15.00;;;11.37;;
13331;SDS011;6735;51.456;12.626;2023-01-19T06:08:58;16.87;;;11.37;;
13331;SDS011;6735;51.456;12.626;2023-01-19T06:11:23;17.37;;;12.17;;
13331;SDS011;6735;51.456;12.626;2023-01-19T06:13:50;16.17;;;12.60;;
13331;SDS011;6735;51.456;12.626;2023-01-19T06:16:15;16.10;;;11.73;;
13331;SDS011;6735;51.456;12.626;2023-01-19T06:18:40;16.67;;;11.97;;
13331;SDS011;6735;51.456;12.626;2023-01-19T06:21:06;15.20;;;12.33;;
13331;SDS011;6735;51.456;12.626;2023-01-19T06:23:33;15.90;;;12.50;;
13331;SDS011;6735;51.456;12.626;2023-01-19T06:26:00;16.87;;;12.37;;
13331;SDS011;6735;51.456;12.626;2023-01-19T06:28:25;17.90;;;13.03;;
13331;SDS011;6735;51.456;12.626;2023-01-19T06:30:52;17.33;;;12.40;;
13331;SDS011;6735;51.456;12.626;2023-01-19T06:33:19;16.43;;;12.53;;
13331;SDS011;6735;51.456;12.626;2023-01-19T06:35:46;21.03;;;13.00;;
13331;SDS011;6735;51.456;12.626;2023-01-19T06:38:12;17.53;;;13.03;;
13331;SDS011;6735;51.456;12.626;2023-01-19T06:40:38;19.23;;;13.43;;
13331;SDS011;6735;51.456;12.626;2023-01-19T06:43:04;17.27;;;13.30;;
13331;SDS011;6735;51.456;12.626;2023-01-19T06:45:30;17.70;;;13.50;;
13331;SDS011;6735;51.456;12.626;2023-01-19T06:47:56;18.40;;;13.67;;
13331;SDS011;6735;51.456;12.626;2023-01-19T06:50:21;19.77;;;13.20;;
13331;SDS011;6735;51.456;12.626;2023-01-19T06:52:48;21.90;;;13.43;;
13331;SDS011;6735;51.456;12.626;2023-01-19T06:55:14;17.87;;;13.30;;
13331;SDS011;6735;51.456;12.626;2023-01-19T06:57:40;19.80;;;14.57;;
13331;SDS011;6735;51.456;12.626;2023-01-19T07:00:06;16.90;;;13.67;;
13331;SDS011;6735;51.456;12.626;2023-01-19T07:02:33;17.63;;;14.43;;
13331;SDS011;6735;51.456;12.626;2023-01-19T07:04:59;21.70;;;14.50;;
13331;SDS011;6735;51.456;12.626;2023-01-19T07:07:25;18.07;;;14.40;;
13331;SDS011;6735;51.456;12.626;2023-01-19T07:09:51;18.00;;;13.80;;
13331;SDS011;6735;51.456;12.626;2023-01-19T07:12:16;18.93;;;14.07;;
13331;SDS011;6735;51.456;12.626;2023-01-19T07:14:42;19.20;;;14.30;;
13331;SDS011;6735;51.456;12.626;2023-01-19T07:17:07;18.50;;;14.73;;
13331;SDS011;6735;51.456;12.626;2023-01-19T07:19:33;18.20;;;13.77;;
13331;SDS011;6735;51.456;12.626;2023-01-19T07:22:01;17.67;;;14.00;;
13331;SDS011;6735;51.456;12.626;2023-01-19T07:24:27;19.60;;;14.87;;
13331;SDS011;6735;51.456;12.626;2023-01-19T07:26:54;17.77;;;14.43;;
13331;SDS011;6735;51.456;12.626;2023-01-19T07:29:20;21.47;;;15.53;;
13331;SDS011;6735;51.456;12.626;2023-01-19T07:31:45;20.83;;;14.77;;
13331;SDS011;6735;51.456;12.626;2023-01-19T07:34:12;17.60;;;13.93;;
13331;SDS011;6735;51.456;12.626;2023-01-19T07:36:38;20.83;;;14.60;;
13331;SDS011;6735;51.456;12.626;2023-01-19T07:39:04;20.30;;;14.07;;
13331;SDS011;6735;51.456;12.626;2023-01-19T07:41:29;21.73;;;14.53;;
13331;SDS011;6735;51.456;12.626;2023-01-19T07:43:54;19.23;;;15.43;;
13331;SDS011;6735;51.456;12.626;2023-01-19T07:46:20;19.67;;;14.67;;
13331;SDS011;6735;51.456;12.626;2023-01-19T07:48:45;21.90;;;14.97;;
13331;SDS011;6735;51.456;12.626;2023-01-19T07:51:11;17.13;;;14.50;;
13331;SDS011;6735;51.456;12.626;2023-01-19T07:53:41;19.27;;;14.30;;
13331;SDS011;6735;51.456;12.626;2023-01-19T07:56:08;20.40;;;15.57;;
13331;SDS011;6735;51.456;12.626;2023-01-19T07:58:34;18.97;;;13.50;;
13331;SDS011;6735;51.456;12.626;2023-01-19T08:00:59;19.47;;;14.87;;
13331;SDS011;6735;51.456;12.626;2023-01-19T08:03:29;19.53;;;14.77;;
13331;SDS011;6735;51.456;12.626;2023-01-19T08:05:54;17.90;;;14.03;;
13331;SDS011;6735;51.456;12.626;2023-01-19T08:08:20;20.20;;;14.90;;
13331;SDS011;6735;51.456;12.626;2023-01-19T08:10:49;20.00;;;14.80;;
13331;SDS011;6735;51.456;12.626;2023-01-19T08:13:16;20.07;;;14.87;;
13331;SDS011;6735;51.456;12.626;2023-01-19T08:15:42;21.50;;;16.00;;
13331;SDS011;6735;51.456;12.626;2023-01-19T08:18:08;17.60;;;14.07;;
13331;SDS011;6735;51.456;12.626;2023-01-19T08:20:35;19.13;;;14.73;;
13331;SDS011;6735;51.456;12.626;2023-01-19T08:23:01;20.37;;;14.60;;
13331;SDS011;6735;51.456;12.626;2023-01-19T08:25:35;18.63;;;14.23;;
13331;SDS011;6735;51.456;12.626;2023-01-19T08:28:03;19.63;;;15.20;;
13331;SDS011;6735;51.456;12.626;2023-01-19T08:30:30;19.07;;;15.00;;
13331;SDS011;6735;51.456;12.626;2023-01-19T08:32:56;19.03;;;14.73;;
13331;SDS011;6735;51.456;12.626;2023-01-19T08:35:28;16.20;;;13.57;;
13331;SDS011;6735;51.456;12.626;2023-01-19T08:37:57;17.77;;;14.60;;
13331;SDS011;6735;51.456;12.626;2023-01-19T08:40:26;19.83;;;14.80;;
13331;SDS011;6735;51.456;12.626;2023-01-19T08:42:52;17.70;;;14.73;;
13331;SDS011;6735;51.456;12.626;2023-01-19T08:45:24;16.27;;;13.00;;
13331;SDS011;6735;51.456;12.626;2023-01-19T08:47:50;18.37;;;14.17;;
13331;SDS011;6735;51.456;12.626;2023-01-19T08:50:16;18.07;;;14.63;;
13331;SDS011;6735;51.456;12.626;2023-01-19T08:52:42;18.20;;;14.00;;
13331;SDS011;6735;51.456;12.626;2023-01-19T08:55:07;18.20;;;14.17;;
13331;SDS011;6735;51.456;12.626;2023-01-19T08:57:35;20.73;;;14.23;;
13331;SDS011;6735;51.456;12.626;2023-01-19T09:00:02;20.43;;;14.27;;
13331;SDS011;6735;51.456;12.626;2023-01-19T09:02:28;22.27;;;14.43;;
13331;SDS011;6735;51.456;12.626;2023-01-19T09:04:54;18.80;;;13.83;;
13331;SDS011;6735;51.456;12.626;2023-01-19T09:07:19;17.03;;;14.57;;
13331;SDS011;6735;51.456;12.626;2023-01-19T09:09:45;18.70;;;14.60;;
13331;SDS011;6735;51.456;12.626;2023-01-19T09:12:10;18.27;;;14.00;;
13331;SDS011;6735;51.456;12.626;2023-01-19T09:14:35;18.97;;;15.10;;
13331;SDS011;6735;51.456;12.626;2023-01-19T09:17:01;19.57;;;13.73;;
13331;SDS011;6735;51.456;12.626;2023-01-19T09:19:26;17.90;;;14.30;;
13331;SDS011;6735;51.456;12.626;2023-01-19T09:21:52;19.20;;;13.90;;
13331;SDS011;6735;51.456;12.626;2023-01-19T09:24:18;17.40;;;14.03;;
13331;SDS011;6735;51.456;12.626;2023-01-19T09:26:44;16.83;;;13.70;;
13331;SDS011;6735;51.456;12.626;2023-01-19T09:29:09;16.93;;;14.23;;
13331;SDS011;6735;51.456;12.626;2023-01-19T09:31:35;18.73;;;13.37;;
13331;SDS011;6735;51.456;12.626;2023-01-19T09:34:01;16.63;;;14.40;;
13331;SDS011;6735;51.456;12.626;2023-01-19T09:36:26;17.00;;;13.37;;
13331;SDS011;6735;51.456;12.626;2023-01-19T09:38:52;17.77;;;13.90;;
13331;SDS011;6735;51.456;12.626;2023-01-19T09:41:18;18.27;;;14.27;;
13331;SDS011;6735;51.456;12.626;2023-01-19T09:44:07;17.13;;;13.87;;
13331;SDS011;6735;51.456;12.626;2023-01-19T09:46:39;19.47;;;14.80;;
13331;SDS011;6735;51.456;12.626;2023-01-19T09:49:11;18.53;;;14.30;;
13331;SDS011;6735;51.456;12.626;2023-01-19T09:51:45;19.37;;;14.27;;
13331;SDS011;6735;51.456;12.626;2023-01-19T09:54:14;18.97;;;15.03;;
13331;SDS011;6735;51.456;12.626;2023-01-19T09:56:42;16.47;;;12.57;;
13331;SDS011;6735;51.456;12.626;2023-01-19T09:59:13;17.63;;;14.37;;
13331;SDS011;6735;51.456;12.626;2023-01-19T10:01:54;20.50;;;15.13;;
13331;SDS011;6735;51.456;12.626;2023-01-19T10:04:36;15.37;;;13.73;;
13331;SDS011;6735;51.456;12.626;2023-01-19T10:07:23;19.30;;;14.77;;
13331;SDS011;6735;51.456;12.626;2023-01-19T10:12:49;17.17;;;14.80;;
13331;SDS011;6735;51.456;12.626;2023-01-19T10:15:44;17.17;;;14.53;;
13331;SDS011;6735;51.456;12.626;2023-01-19T10:21:25;17.53;;;14.40;;
13331;SDS011;6735;51.456;12.626;2023-01-19T10:24:00;17.17;;;14.53;;
13331;SDS011;6735;51.456;12.626;2023-01-19T10:29:19;17.70;;;13.53;;
13331;SDS011;6735;51.456;12.626;2023-01-19T10:31:56;17.03;;;14.10;;
13331;SDS011;6735;51.456;12.626;2023-01-19T10:34:28;17.80;;;13.87;;
13331;SDS011;6735;51.456;12.626;2023-01-19T10:36:55;19.57;;;15.60;;
13331;SDS011;6735;51.456;12.626;2023-01-19T10:39:26;19.47;;;15.30;;
13331;SDS011;6735;51.456;12.626;2023-01-19T10:41:52;19.93;;;15.77;;
13331;SDS011;6735;51.456;12.626;2023-01-19T10:44:24;19.27;;;15.37;;
13331;SDS011;6735;51.456;12.626;2023-01-19T10:46:58;18.43;;;15.17;;
13331;SDS011;6735;51.456;12.626;2023-01-19T10:49:29;16.53;;;13.63;;
13331;SDS011;6735;51.456;12.626;2023-01-19T10:52:04;16.90;;;12.43;;
13331;SDS011;6735;51.456;12.626;2023-01-19T10:54:32;16.40;;;14.17;;
13331;SDS011;6735;51.456;12.626;2023-01-19T10:57:01;19.73;;;14.83;;
13331;SDS011;6735;51.456;12.626;2023-01-19T11:02:03;17.10;;;15.10;;
13331;SDS011;6735;51.456;12.626;2023-01-19T11:04:48;16.90;;;12.67;;
13331;SDS011;6735;51.456;12.626;2023-01-19T11:07:18;18.37;;;14.13;;
13331;SDS011;6735;51.456;12.626;2023-01-19T11:09:46;16.87;;;14.40;;
13331;SDS011;6735;51.456;12.626;2023-01-19T11:12:19;17.63;;;15.27;;
13331;SDS011;6735;51.456;12.626;2023-01-19T11:14:47;16.50;;;14.10;;
13331;SDS011;6735;51.456;12.626;2023-01-19T11:17:18;18.10;;;13.97;;
13331;SDS011;6735;51.456;12.626;2023-01-19T11:19:56;18.23;;;13.63;;
13331;SDS011;6735;51.456;12.626;2023-01-19T11:22:32;15.13;;;13.53;;
13331;SDS011;6735;51.456;12.626;2023-01-19T11:25:02;15.57;;;13.37;;
13331;SDS011;6735;51.456;12.626;2023-01-19T11:27:30;18.43;;;14.13;;
13331;SDS011;6735;51.456;12.626;2023-01-19T11:32:44;17.27;;;13.67;;
13331;SDS011;6735;51.456;12.626;2023-01-19T11:38:12;15.07;;;12.23;;
13331;SDS011;6735;51.456;12.626;2023-01-19T11:40:41;14.47;;;12.40;;
13331;SDS011;6735;51.456;12.626;2023-01-19T11:43:14;16.23;;;13.13;;
13331;SDS011;6735;51.456;12.626;2023-01-19T11:45:40;14.73;;;12.93;;
13331;SDS011;6735;51.456;12.626;2023-01-19T11:48:06;17.20;;;14.80;;
13331;SDS011;6735;51.456;12.626;2023-01-19T11:50:45;16.53;;;12.50;;
13331;SDS011;6735;51.456;12.626;2023-01-19T11:53:13;15.40;;;13.50;;
13331;SDS011;6735;51.456;12.626;2023-01-19T11:58:21;16.97;;;13.03;;
13331;SDS011;6735;51.456;12.626;2023-01-19T12:06:05;16.33;;;11.47;;
13331;SDS011;6735;51.456;12.626;2023-01-19T12:08:36;13.43;;;10.97;;
13331;SDS011;6735;51.456;12.626;2023-01-19T12:11:07;15.93;;;12.33;;
13331;SDS011;6735;51.456;12.626;2023-01-19T12:13:37;15.50;;;12.00;;
13331;SDS011;6735;51.456;12.626;2023-01-19T12:16:06;15.70;;;12.67;;
13331;SDS011;6735;51.456;12.626;2023-01-19T12:18:43;13.93;;;11.63;;
13331;SDS011;6735;51.456;12.626;2023-01-19T12:21:12;15.73;;;12.67;;
13331;SDS011;6735;51.456;12.626;2023-01-19T12:23:50;18.03;;;12.70;;
13331;SDS011;6735;51.456;12.626;2023-01-19T12:28:59;16.27;;;11.93;;
13331;SDS011;6735;51.456;12.626;2023-01-19T12:31:30;14.93;;;12.13;;
13331;SDS011;6735;51.456;12.626;2023-01-19T12:34:04;13.53;;;11.77;;
13331;SDS011;6735;51.456;12.626;2023-01-19T12:36:47;13.87;;;11.10;;
13331;SDS011;6735;51.456;12.626;2023-01-19T12:39:18;13.97;;;11.73;;
13331;SDS011;6735;51.456;12.626;2023-01-19T12:41:45;14.00;;;11.33;;
13331;SDS011;6735;51.456;12.626;2023-01-19T12:51:51;12.13;;;10.77;;
13331;SDS011;6735;51.456;12.626;2023-01-19T12:54:28;12.40;;;10.60;;
13331;SDS011;6735;51.456;12.626;2023-01-19T12:56:57;12.73;;;10.00;;
13331;SDS011;6735;51.456;12.626;2023-01-19T12:59:26;12.60;;;10.47;;
13331;SDS011;6735;51.456;12.626;2023-01-19T13:05:09;12.80;;;9.93;;
13331;SDS011;6735;51.456;12.626;2023-01-19T13:13:40;13.60;;;10.27;;
13331;SDS011;6735;51.456;12.626;2023-01-19T13:18:56;12.80;;;11.20;;
13331;SDS011;6735;51.456;12.626;2023-01-19T13:21:46;12.87;;;10.20;;
13331;SDS011;6735;51.456;12.626;2023-01-19T13:24:14;12.67;;;10.43;;
13331;SDS011;6735;51.456;12.626;2023-01-19T13:29:17;12.07;;;10.70;;
13331;SDS011;6735;51.456;12.626;2023-01-19T13:31:54;12.93;;;10.47;;
13331;SDS011;6735;51.456;12.626;2023-01-19T13:34:27;12.27;;;10.40;;
13331;SDS011;6735;51.456;12.626;2023-01-19T13:40:16;12.50;;;10.13;;
13331;SDS011;6735;51.456;12.626;2023-01-19T13:42:47;11.97;;;10.73;;
13331;SDS011;6735;51.456;12.626;2023-01-19T13:45:24;11.67;;;10.23;;
13331;SDS011;6735;51.456;12.626;2023-01-19T13:47:57;11.67;;;10.43;;
13331;SDS011;6735;51.456;12.626;2023-01-19T13:50:29;11.13;;;9.73;;
13331;SDS011;6735;51.456;12.626;2023-01-19T13:52:56;11.57;;;9.60;;
13331;SDS011;6735;51.456;12.626;2023-01-19T13:55:23;11.57;;;10.07;;
13331;SDS011;6735;51.456;12.626;2023-01-19T13:57:50;11.67;;;9.70;;
13331;SDS011;6735;51.456;12.626;2023-01-19T14:00:17;10.47;;;9.37;;
13331;SDS011;6735;51.456;12.626;2023-01-19T14:02:51;11.10;;;9.77;;
13331;SDS011;6735;51.456;12.626;2023-01-19T14:05:29;12.63;;;10.50;;
13331;SDS011;6735;51.456;12.626;2023-01-19T14:10:38;13.03;;;9.87;;
13331;SDS011;6735;51.456;12.626;2023-01-19T14:13:12;12.10;;;10.67;;
13331;SDS011;6735;51.456;12.626;2023-01-19T14:15:43;12.03;;;10.60;;
13331;SDS011;6735;51.456;12.626;2023-01-19T14:20:50;12.63;;;9.83;;
13331;SDS011;6735;51.456;12.626;2023-01-19T14:29:26;11.53;;;10.33;;
13331;SDS011;6735;51.456;12.626;2023-01-19T14:37:22;14.53;;;10.63;;
13331;SDS011;6735;51.456;12.626;2023-01-19T14:39:51;12.67;;;11.37;;
13331;SDS011;6735;51.456;12.626;2023-01-19T14:42:25;12.00;;;10.57;;
13331;SDS011;6735;51.456;12.626;2023-01-19T14:45:24;12.77;;;10.10;;
13331;SDS011;6735;51.456;12.626;2023-01-19T14:48:01;12.17;;;10.87;;
13331;SDS011;6735;51.456;12.626;2023-01-19T14:50:29;12.93;;;10.30;;
13331;SDS011;6735;51.456;12.626;2023-01-19T14:52:59;11.43;;;10.23;;
13331;SDS011;6735;51.456;12.626;2023-01-19T14:55:31;11.33;;;9.63;;
13331;SDS011;6735;51.456;12.626;2023-01-19T14:58:06;11.80;;;10.60;;
13331;SDS011;6735;51.456;12.626;2023-01-19T15:00:36;10.90;;;9.80;;
13331;SDS011;6735;51.456;12.626;2023-01-19T15:03:03;10.77;;;9.63;;
13331;SDS011;6735;51.456;12.626;2023-01-19T15:05:30;10.53;;;9.27;;
13331;SDS011;6735;51.456;12.626;2023-01-19T15:07:56;12.53;;;10.00;;
13331;SDS011;6735;51.456;12.626;2023-01-19T15:10:22;9.90;;;8.90;;
13331;SDS011;6735;51.456;12.626;2023-01-19T15:12:49;10.50;;;9.47;;
13331;SDS011;6735;51.456;12.626;2023-01-19T15:15:17;9.40;;;8.53;;
13331;SDS011;6735;51.456;12.626;2023-01-19T15:17:46;11.73;;;8.63;;
13331;SDS011;6735;51.456;12.626;2023-01-19T15:20:17;9.27;;;8.37;;
13331;SDS011;6735;51.456;12.626;2023-01-19T15:22:44;9.57;;;8.10;;
13331;SDS011;6735;51.456;12.626;2023-01-19T15:25:20;8.60;;;7.80;;
13331;SDS011;6735;51.456;12.626;2023-01-19T15:27:49;9.70;;;8.37;;
13331;SDS011;6735;51.456;12.626;2023-01-19T15:30:17;8.87;;;7.87;;
13331;SDS011;6735;51.456;12.626;2023-01-19T15:32:45;9.50;;;8.50;;
13331;SDS011;6735;51.456;12.626;2023-01-19T15:35:12;8.40;;;7.60;;
13331;SDS011;6735;51.456;12.626;2023-01-19T15:37:39;12.73;;;9.83;;
13331;SDS011;6735;51.456;12.626;2023-01-19T15:40:04;9.13;;;8.23;;
13331;SDS011;6735;51.456;12.626;2023-01-19T15:42:30;8.67;;;7.83;;
13331;SDS011;6735;51.456;12.626;2023-01-19T15:44:57;9.07;;;8.03;;
13331;SDS011;6735;51.456;12.626;2023-01-19T15:47:22;9.53;;;8.30;;
13331;SDS011;6735;51.456;12.626;2023-01-19T15:49:48;9.13;;;8.23;;
13331;SDS011;6735;51.456;12.626;2023-01-19T15:52:13;10.77;;;8.17;;
13331;SDS011;6735;51.456;12.626;2023-01-19T15:54:39;9.80;;;8.57;;